Koeltztown, Missouri
Current Conditions -  °F | °C
As of 9:53 PM on Wednesday 24 Dec 2014 (Local Time) from KJEF Reporting Station
Overcast Overcast  
Wind Chill: 31°   Ceiling: 2900
Heat Index: 38°   Visibility: 10mi
Dew Point: 30°   Wind: 9mph
Humidity: 73%   Direction: 260°W
Pressure: 29.87"   Gusts: NA
Location:  38.32°N, 92.04°W
Report Text: KJEF 250353Z AUTO 26008KT 10SM OVC029 03/M01 A2987 RMK AO2 SLP108 T00331011
Loading
Personal Weather Stations






























Interactive Weather Map New forecast layout! Learn more

10-Day Weather Forecast

Advertisements
Track Severe Weather on mobile